createdAt,value
2022-10-09T10:22:52.266Z,18.45
2022-10-09T10:25:24.094Z,17.33
2022-10-09T10:30:21.900Z,15.25
2022-10-09T10:33:13.339Z,15.35
2022-10-09T10:35:42.940Z,14.15
2022-10-09T10:38:13.355Z,12.20
2022-10-09T10:40:57.363Z,10.15
2022-10-09T10:43:40.758Z,16.10
2022-10-09T10:46:49.173Z,16.55
2022-10-09T10:49:20.938Z,14.65
2022-10-09T10:54:35.394Z,13.25
2022-10-09T10:57:15.354Z,17.15
2022-10-09T11:00:05.959Z,16.73
2022-10-09T11:02:56.739Z,17.95
2022-10-09T11:05:27.718Z,9.50
2022-10-09T11:08:08.215Z,12.27
2022-10-09T11:10:48.506Z,17.67
2022-10-09T11:13:24.263Z,16.92
2022-10-09T11:16:16.594Z,17.02
2022-10-09T11:19:09.357Z,16.83
2022-10-09T11:21:53.947Z,16.05
2022-10-09T11:24:37.395Z,22.35
2022-10-09T11:27:16.775Z,18.50
2022-10-09T11:29:48.871Z,19.33
2022-10-09T11:32:19.828Z,14.55
2022-10-09T11:34:58.865Z,15.98
2022-10-09T11:37:30.808Z,11.82
2022-10-09T11:39:59.119Z,16.48
2022-10-09T11:42:28.763Z,9.45
2022-10-09T11:45:35.407Z,10.68
2022-10-09T11:48:10.565Z,10.32
2022-10-09T11:51:22.889Z,8.00
2022-10-09T11:53:52.457Z,9.80
2022-10-09T11:56:27.103Z,9.82
2022-10-09T11:59:06.885Z,11.70
2022-10-09T12:01:47.619Z,10.23
2022-10-09T12:04:53.448Z,7.78
2022-10-09T12:10:26.210Z,15.85
2022-10-09T12:13:03.992Z,10.55
2022-10-09T12:15:46.071Z,5.18
2022-10-09T12:18:24.485Z,14.15
2022-10-09T12:20:54.028Z,12.90
2022-10-09T12:23:27.702Z,10.77
2022-10-09T12:25:57.421Z,10.77
2022-10-09T12:28:28.231Z,5.35
2022-10-09T12:30:58.016Z,6.90
2022-10-09T12:33:42.537Z,8.73
2022-10-09T12:36:25.854Z,8.52
2022-10-09T12:38:54.628Z,9.13
2022-10-09T12:41:30.823Z,7.00
2022-10-09T12:43:59.465Z,9.38
2022-10-09T12:46:29.951Z,6.40
2022-10-09T12:48:58.905Z,5.07
2022-10-09T12:51:29.237Z,8.15
2022-10-09T12:53:57.492Z,16.25
2022-10-09T12:56:38.410Z,14.60
2022-10-09T12:59:11.400Z,8.90
2022-10-09T13:01:41.834Z,6.57
2022-10-09T13:04:26.287Z,8.52
2022-10-09T13:06:54.767Z,7.35
2022-10-09T13:09:38.472Z,9.75
2022-10-09T13:12:21.507Z,7.18
2022-10-09T13:14:56.797Z,7.50
2022-10-09T13:17:38.410Z,7.28
2022-10-09T13:20:12.924Z,7.35
2022-10-09T13:22:42.051Z,6.43
2022-10-09T13:25:10.588Z,6.00
2022-10-09T13:27:40.062Z,7.63
2022-10-09T13:30:10.759Z,12.75
2022-10-09T13:32:39.234Z,9.15
2022-10-09T13:35:07.535Z,8.10
2022-10-09T13:37:35.717Z,9.25
2022-10-09T13:40:05.993Z,6.70
2022-10-09T13:42:39.309Z,11.00
2022-10-09T13:45:08.230Z,10.98
2022-10-09T13:47:36.340Z,9.90
2022-10-09T13:50:04.982Z,9.23
2022-10-09T13:52:33.388Z,10.18
2022-10-09T13:55:01.484Z,9.73
2022-10-09T13:57:29.669Z,15.93
2022-10-09T13:59:57.992Z,5.90
2022-10-09T14:02:26.200Z,7.65
2022-10-09T14:04:54.271Z,8.60
2022-10-09T14:07:22.667Z,9.20
2022-10-09T14:09:50.746Z,10.05
2022-10-09T14:12:18.850Z,14.27
2022-10-09T14:14:47.244Z,21.23
2022-10-09T14:17:15.355Z,12.00
2022-10-09T14:19:43.543Z,13.52
2022-10-09T14:22:13.420Z,10.32
2022-10-09T14:24:42.798Z,11.73
2022-10-09T14:27:10.980Z,8.25
2022-10-09T14:29:39.470Z,13.90
2022-10-09T14:32:07.693Z,10.48
2022-10-09T14:34:35.821Z,8.02
2022-10-09T14:37:13.614Z,12.18
2022-10-09T14:39:47.279Z,11.80
2022-10-09T14:42:15.665Z,12.90
2022-10-09T14:44:43.846Z,15.88
2022-10-09T14:47:12.160Z,10.82
2022-10-09T14:49:40.329Z,13.80
2022-10-09T14:52:08.415Z,7.35
2022-10-09T14:54:36.760Z,15.38
2022-10-09T14:57:05.253Z,17.20
2022-10-09T14:59:33.495Z,17.67
2022-10-09T15:02:02.186Z,12.57
2022-10-09T15:04:30.322Z,12.65
2022-10-09T15:06:58.389Z,21.85
2022-10-09T15:09:26.895Z,12.82
2022-10-09T15:11:55.941Z,15.02
2022-10-09T15:14:24.157Z,19.33
2022-10-09T15:16:52.543Z,15.52
2022-10-09T15:19:20.641Z,11.43
2022-10-09T15:21:48.773Z,21.10
2022-10-09T15:24:17.170Z,20.02
2022-10-09T15:26:45.320Z,16.70
2022-10-09T15:29:13.385Z,17.05
2022-10-09T15:31:42.115Z,18.52
2022-10-09T15:34:14.635Z,20.10
2022-10-09T15:36:46.138Z,16.60
2022-10-09T15:39:15.351Z,20.80
2022-10-09T15:41:44.103Z,21.20
2022-10-09T15:44:18.257Z,15.02
2022-10-09T15:46:47.707Z,19.20
2022-10-09T15:49:16.239Z,13.73
2022-10-09T15:51:44.362Z,19.75
2022-10-09T15:54:14.450Z,16.65
2022-10-09T15:56:42.912Z,21.08
2022-10-09T15:59:13.384Z,22.85
2022-10-09T16:01:41.644Z,19.50
2022-10-09T16:04:10.171Z,19.27
2022-10-09T16:06:38.452Z,19.60
2022-10-09T16:09:06.866Z,15.88
2022-10-09T16:11:35.058Z,21.73
2022-10-09T16:14:04.437Z,16.13
2022-10-09T16:16:32.626Z,15.48
2022-10-09T16:19:04.009Z,16.23
2022-10-09T16:21:32.565Z,13.88
2022-10-09T16:24:00.760Z,15.20
2022-10-09T16:26:29.884Z,16.77
2022-10-09T16:28:59.535Z,15.20
2022-10-09T16:31:30.385Z,17.13
2022-10-09T16:33:59.074Z,13.38
2022-10-09T16:36:27.911Z,21.67
2022-10-09T16:38:57.643Z,23.40
2022-10-09T16:41:26.867Z,14.60
2022-10-09T16:43:56.907Z,22.40
2022-10-09T16:49:06.424Z,24.55
2022-10-09T16:51:36.109Z,32.15
2022-10-09T16:54:06.121Z,45.05
2022-10-09T16:56:37.613Z,42.58
2022-10-09T16:59:08.102Z,33.03
2022-10-09T17:01:37.979Z,28.70
2022-10-09T17:04:06.205Z,21.75
2022-10-09T17:06:34.612Z,30.15
2022-10-09T17:09:03.062Z,24.00
2022-10-09T17:11:32.462Z,24.98
2022-10-09T17:14:00.645Z,18.77
2022-10-09T17:16:32.917Z,19.63
2022-10-09T17:19:01.903Z,20.38
2022-10-09T17:21:34.233Z,21.10
2022-10-09T17:24:06.590Z,24.08
2022-10-09T17:26:35.945Z,18.08
2022-10-09T17:29:04.922Z,25.35
2022-10-09T17:31:33.677Z,25.92
2022-10-09T17:34:03.555Z,20.33
2022-10-09T17:36:34.764Z,31.73
2022-10-09T17:41:32.489Z,27.05
2022-10-09T17:44:00.728Z,26.45
2022-10-09T17:46:30.657Z,31.75
2022-10-09T17:48:59.983Z,22.85
2022-10-09T17:51:30.565Z,30.23
2022-10-09T17:54:01.619Z,33.70
2022-10-09T17:56:31.566Z,26.73
2022-10-09T17:59:00.498Z,37.10
2022-10-09T18:01:29.328Z,30.73
2022-10-09T18:03:57.873Z,29.00
2022-10-09T18:06:26.618Z,29.90
2022-10-09T18:08:55.893Z,26.80
2022-10-09T18:11:25.520Z,23.33
2022-10-09T18:13:54.840Z,30.75
2022-10-09T18:16:35.380Z,26.25
2022-10-09T18:19:12.362Z,26.08
2022-10-09T18:21:42.662Z,25.45
2022-10-09T18:24:11.494Z,22.90
2022-10-09T18:26:40.218Z,33.22
2022-10-09T18:29:08.345Z,30.15
2022-10-09T18:31:37.898Z,44.97
2022-10-09T18:34:06.137Z,37.88
2022-10-09T18:36:36.015Z,43.70
2022-10-09T18:39:05.553Z,44.90
2022-10-09T18:41:33.787Z,36.65
2022-10-09T18:44:02.603Z,37.53
2022-10-09T18:46:39.424Z,37.95
2022-10-09T18:49:10.298Z,36.97
2022-10-09T18:51:40.237Z,28.60
2022-10-09T18:54:12.281Z,40.05
2022-10-09T18:56:43.043Z,37.97
2022-10-09T18:59:14.649Z,37.22
2022-10-09T19:01:43.353Z,39.47
2022-10-09T19:04:12.120Z,35.30
2022-10-09T19:06:40.548Z,32.25
2022-10-09T19:09:12.385Z,44.72
2022-10-09T19:11:41.046Z,40.08
2022-10-09T19:14:09.975Z,38.63
2022-10-09T19:16:38.488Z,42.30
2022-10-09T19:19:07.383Z,46.08
2022-10-09T19:21:38.142Z,37.55
2022-10-09T19:24:07.340Z,40.13
2022-10-09T19:26:35.828Z,32.65
2022-10-09T19:29:05.644Z,38.92
2022-10-09T19:31:35.242Z,47.03
2022-10-09T19:34:05.203Z,38.80
2022-10-09T19:36:36.878Z,37.45
2022-10-09T19:39:09.938Z,40.13
2022-10-09T19:41:39.555Z,36.45
2022-10-09T19:44:08.581Z,45.45
2022-10-09T19:46:38.449Z,36.08
2022-10-09T19:49:07.861Z,45.63
2022-10-09T19:51:36.841Z,42.47
2022-10-09T19:54:06.676Z,36.88
2022-10-09T19:56:36.286Z,42.65
2022-10-09T19:59:07.303Z,41.70
2022-10-09T20:01:37.728Z,44.63
2022-10-09T20:04:09.176Z,47.13
2022-10-09T20:06:41.836Z,43.47
2022-10-09T20:09:12.049Z,40.88
2022-10-09T20:11:40.378Z,40.63
2022-10-09T20:14:09.859Z,38.55
2022-10-09T20:16:38.936Z,43.38
2022-10-09T20:19:07.177Z,40.50
2022-10-09T20:21:35.535Z,47.85
2022-10-09T20:24:04.356Z,47.28
2022-10-09T20:26:33.362Z,43.25
2022-10-09T20:29:02.064Z,40.83
2022-10-09T20:31:30.538Z,40.05
2022-10-09T20:33:59.657Z,44.75
2022-10-09T20:36:32.014Z,38.03
2022-10-09T20:39:03.379Z,47.70
2022-10-09T20:41:32.163Z,42.67
2022-10-09T20:44:02.279Z,40.60
2022-10-09T20:46:32.682Z,42.35
2022-10-09T20:49:04.096Z,36.70
2022-10-09T20:51:34.272Z,43.13
2022-10-09T20:54:03.160Z,47.28
2022-10-09T20:56:32.535Z,42.80
2022-10-09T20:59:01.648Z,37.20
2022-10-09T21:01:29.962Z,43.13
2022-10-09T21:03:59.427Z,42.55
2022-10-09T21:06:27.917Z,37.40
